Aérodrome :
LOGIN :

S'inscrire | Disclaimer

   EN    FR    IT 

 










Légende :    VFR   VFR Marginal   IFR   IFR Intensif   IFR Très Intensif
Visi : 
Plafond : 
>= 8 km
>= 3000ft
5 à 8 km
1000 à 3000 ft
1500m à 5 km
500 à 1000 ft
800 à 1500m
200 à 500 ft
< 800m
< 200 ft
Symboles :   Orages  Brouillard  Fortes neiges  Fortes précipitations  Vent > 20 kt
SIGMETs :   Divers  Orages  Givrage  Turbulence  Onde Orograph.  Cendres Volcan.






- Altitude de l'aérodrome : 3 ft
- Code IATA : LWR


EHLW - Leuuwarden Air Base

DERNIER METAR :
  • 180455Z AUTO 16008KT 130V200 8000 BR FEW004 SCT006 BKN007 12/12 Q1003 YLO

METARs EXPIRÉS :
  • 180439Z AUTO 16009KT 130V200 8000 BR FEW004 BKN006 BKN008 12/12 Q1003 YLO
  • 180434Z AUTO 16009KT 130V210 8000 BR FEW004 SCT007 BKN014 12/11 Q1003 GRN
  • 180425Z AUTO 16009KT 120V190 8000 BR FEW005 BKN006 OVC007 12/11 Q1003 YLO
  • 180358Z AUTO 16009KT 130V200 8000 BR FEW005 BKN007 BKN010 12/12 Q1004 GRN
  • 180337Z AUTO 16009KT 120V200 6000 BR SCT005 BKN007 OVC008 12/12 Q1004 YLO
  • 180336Z AUTO 16009KT 120V200 6000 BR FEW006 BKN007 OVC008 12/12 Q1004 GRN
  • 180325Z AUTO 15009KT 120V180 6000 BR SCT005 BKN006 OVC008 12/12 Q1004 YLO
  • 180255Z AUTO 15010KT 120V180 5000 BR SCT004 BKN006 BKN033 12/12 Q1004 YLO
  • 180239Z AUTO 15009KT 120V180 5000 BR FEW003 BKN004 BKN006 12/12 Q1004 YLO
  • 180225Z AUTO 15009KT 110V180 5000 BR FEW004 SCT005 BKN006 FEW015CB 12/11 Q1005 REDZ YLO
  • 180204Z AUTO 15010KT 100V180 3300 +DZRA FEW003 SCT005 BKN006 FEW015CB 12/11 Q1005 YLO

TAF TAF EHLW
Valide du 18 à 01h jusqu'au 18 à 13h UTC


180030Z 1801/1813 16010KT 9999 SCT020
TEMPO 1801/1805 3000 BR SCT003 BKN006
TEMPO 1801/1809 -SHRA FEW012 SCT018CB BKN040
BECMG 1808/1810 19015G30KT
TEMPO 1809/1813 23016G35KT 3000 SHRA TSRAGS SCT012 BKN015CB BKN020



MET'MAP, la Météo Aéronautique d'un coup d'oeil ! - Copyright ORBIFLY Décembre 2007 - Disclaimer

ORBIFLY MET'MAP TEAM :

Programmation & Développement : Alexandra Zaïnal
Conception & Développement : Baudouin d'Aumeries
Co-Programmation & Développement : Marc-Olivier Méhu
Soutien technique & logistique : Manuel Goepfert

Contact : metmap@orbifly.com




SOURCES & CREDITS :

   NOAA